Terminal Aerodrome Forecast
Issued by NWS

Home | Current Version | Previous Version | Text Only | Print | Product List | Glossary Off
Versions: 1 2 3 4 5 6 7 8 9 10 11 12 13

000
FTUS43 KBIS 201733
TAFJMS
TAF
KJMS 201733Z 2018/2118 16007KT P6SM BKN009
     FM201900 15008KT P6SM SCT015
     FM202100 18007KT P6SM FEW040
     FM202300 25007KT P6SM FEW250
     FM210700 33008KT P6SM SCT250=

USA.gov is the U.S. government's official web portal to all federal, state and local government web resources and services.